Aeroporto :
LOGIN :

Iscrizione | Disclaimer

   EN    FR    IT 

 










Sommario :    VFR   VFR Marginale   IFR   IFR Intensivo   IFR Molto Intensivo
Visibilità : 
Base nubi : 
>= 8 km
>= 3000ft
5 / 8 km
1000 / 3000 ft
1500m / 5 km
500 / 1000 ft
800 / 1500m
200 / 500 ft
< 800m
< 200 ft
Simboli :   Temporali  Nebbia  Neve Forte  Precipitazioni Forti  Vento > 20 kt
SIGMETs :   Varie  Temporali  Ghiacco  Turbolenza  Onda orograficha  Ceneri Vulcaniche







- Altitudine del aeroporto : 83 ft
- Codice IATA : LHR
- Carte del aeroporto


EGLL - London Heathrow

ULTIMO METAR :
  • 191150Z AUTO 25011KT 9999 BKN030 BKN037 22/14 Q1023 NOSIG

METARs OBSOLETI :
  • 191120Z AUTO 25010KT 220V280 9999 BKN028 BKN036 23/14 Q1023 NOSIG
  • 191050Z AUTO 25011KT 210V280 9999 SCT027 OVC032 21/14 Q1023
  • 191020Z AUTO 26010KT 9999 BKN026 OVC037 21/15 Q1023 NOSIG
  • 190950Z AUTO 25009KT 9999 BKN025 OVC033 21/14 Q1023 NOSIG
  • 190920Z AUTO 24009KT 210V280 9999 FEW027 OVC031 21/14 Q1023

TAF TAF EGLL
Valido dal 19 a 12 ore il 20 a 18 ore UTC


191100Z 1912/2018 25010KT 9999 SCT025
TEMPO 1923/2010 BKN008
PROB30 2002/2007 4500 HZ BKN004
Nessun NOTAM noto per questo aeroporto.



MetMap, La meteo Aeronautica in un colpo d'occhio ! - Copyright ORBIFLY Dicembre 2007 - Disclaimer

ORBIFLY MET'MAP TEAM :

Programmazione e sviluppo : Alexandra Zaïnal
Concezione e sviluppo : Baudouin d'Aumeries
Co-Programmazione e sviluppo : Marc-Olivier Méhu
Supporto tecnico e logistico : Manuel Goepfert
Aiuto per la traduzione : Arnaldo La Scala

Contatto : metmap@orbifly.com




FONTI E CREDITI :

   NOAA